createdAt,value
2023-07-14T00:01:28.020Z,8.90
2023-07-14T00:03:58.941Z,9.02
2023-07-14T00:06:27.303Z,8.20
2023-07-14T00:08:56.099Z,8.73
2023-07-14T00:11:26.193Z,8.45
2023-07-14T00:13:55.721Z,9.27
2023-07-14T00:16:27.490Z,9.07
2023-07-14T00:18:57.529Z,9.57
2023-07-14T00:21:28.065Z,9.20
2023-07-14T00:23:59.712Z,8.95
2023-07-14T00:26:28.732Z,9.52
2023-07-14T00:28:57.172Z,9.35
2023-07-14T00:31:25.541Z,11.10
2023-07-14T00:33:55.449Z,8.73
2023-07-14T00:36:25.348Z,9.77
2023-07-14T00:38:53.701Z,9.82
2023-07-14T00:41:24.987Z,9.43
2023-07-14T00:43:53.914Z,9.07
2023-07-14T00:46:28.455Z,10.38
2023-07-14T00:48:59.661Z,9.32
2023-07-14T00:51:31.057Z,9.20
2023-07-14T00:53:59.937Z,10.27
2023-07-14T00:56:36.344Z,10.00
2023-07-14T00:59:07.340Z,10.80
2023-07-14T01:01:35.729Z,9.90
2023-07-14T01:04:04.267Z,10.32
2023-07-14T01:06:36.393Z,10.40
2023-07-14T01:09:09.935Z,10.63
2023-07-14T01:11:40.563Z,10.23
2023-07-14T01:14:11.794Z,10.32
2023-07-14T01:16:41.424Z,11.60
2023-07-14T01:19:12.886Z,10.40
2023-07-14T01:21:43.600Z,12.65
2023-07-14T01:24:17.071Z,10.93
2023-07-14T01:26:57.464Z,11.45
2023-07-14T01:29:26.234Z,11.32
2023-07-14T01:31:55.343Z,11.70
2023-07-14T01:34:23.997Z,10.93
2023-07-14T01:36:57.974Z,11.65
2023-07-14T01:39:26.937Z,11.75
2023-07-14T01:41:56.817Z,11.18
2023-07-14T01:44:25.844Z,10.93
2023-07-14T01:46:55.139Z,11.23
2023-07-14T01:49:40.141Z,11.25
2023-07-14T01:52:14.506Z,11.70
2023-07-14T01:54:46.936Z,12.05
2023-07-14T01:57:19.748Z,12.48
2023-07-14T01:59:50.742Z,12.38
2023-07-14T02:02:25.346Z,11.60
2023-07-14T02:04:54.247Z,11.35
2023-07-14T02:07:22.622Z,12.27
2023-07-14T02:09:51.492Z,12.15
2023-07-14T02:12:28.605Z,12.63
2023-07-14T02:15:00.425Z,12.45
2023-07-14T02:17:32.501Z,13.23
2023-07-14T02:20:22.985Z,11.88
2023-07-14T02:22:52.403Z,14.55
2023-07-14T02:25:21.787Z,12.88
2023-07-14T02:27:51.700Z,12.48
2023-07-14T02:30:22.737Z,9.95
2023-07-14T02:32:53.671Z,9.93
2023-07-14T02:35:25.958Z,10.20
2023-07-14T02:38:05.578Z,7.57
2023-07-14T02:40:38.551Z,8.50
2023-07-14T02:43:10.192Z,8.13
2023-07-14T02:45:43.855Z,7.75
2023-07-14T02:48:15.473Z,7.72
2023-07-14T02:50:44.167Z,6.35
2023-07-14T02:53:12.734Z,6.07
2023-07-14T02:55:42.373Z,6.43
2023-07-14T02:58:12.495Z,6.35
2023-07-14T03:00:40.870Z,6.15
2023-07-14T03:03:09.469Z,6.85
2023-07-14T03:05:38.182Z,6.18
2023-07-14T03:08:09.095Z,6.38
2023-07-14T03:10:37.517Z,6.63
2023-07-14T03:13:06.105Z,6.43
2023-07-14T03:15:35.897Z,5.88
2023-07-14T03:18:04.381Z,6.53
2023-07-14T03:20:33.420Z,6.50
2023-07-14T03:23:01.951Z,5.85
2023-07-14T03:25:30.339Z,6.70
2023-07-14T03:27:58.822Z,6.28
2023-07-14T03:30:27.729Z,5.63
2023-07-14T03:32:57.540Z,5.68
2023-07-14T03:35:26.222Z,5.82
2023-07-14T03:37:54.642Z,6.10
2023-07-14T03:40:23.098Z,5.95
2023-07-14T03:42:51.593Z,12.75
2023-07-14T03:45:20.024Z,6.07
2023-07-14T03:47:48.587Z,5.65
2023-07-14T03:50:18.696Z,5.45
2023-07-14T03:52:47.603Z,6.80
2023-07-14T03:55:16.210Z,6.82
2023-07-14T03:58:00.754Z,4.85
2023-07-14T04:00:32.279Z,5.90
2023-07-14T04:03:01.488Z,5.75
2023-07-14T04:05:31.333Z,7.15
2023-07-14T04:08:00.083Z,6.25
2023-07-14T04:10:28.602Z,5.85
2023-07-14T04:12:58.915Z,6.38
2023-07-14T04:15:27.273Z,5.82
2023-07-14T04:17:55.864Z,5.88
2023-07-14T04:20:24.253Z,5.38
2023-07-14T04:22:55.162Z,5.80
2023-07-14T04:25:23.797Z,5.20
2023-07-14T04:27:53.885Z,4.82
2023-07-14T04:30:22.702Z,5.80
2023-07-14T04:32:53.487Z,6.50
2023-07-14T04:35:21.929Z,5.82
2023-07-14T04:37:50.281Z,5.72
2023-07-14T04:40:35.888Z,6.15
2023-07-14T04:43:05.333Z,6.85
2023-07-14T04:45:33.877Z,8.48
2023-07-14T04:48:02.336Z,5.57
2023-07-14T04:50:30.809Z,7.03
2023-07-14T04:53:00.319Z,6.60
2023-07-14T04:55:30.166Z,7.20
2023-07-14T04:57:58.857Z,8.23
2023-07-14T05:00:27.566Z,9.02
2023-07-14T05:02:57.572Z,10.05
2023-07-14T05:05:27.773Z,9.27
2023-07-14T05:07:56.840Z,9.90
2023-07-14T05:10:26.930Z,10.57
2023-07-14T05:12:58.328Z,9.75
2023-07-14T05:15:27.664Z,8.45
2023-07-14T05:17:56.867Z,7.78
2023-07-14T05:20:26.192Z,7.85
2023-07-14T05:22:55.731Z,8.10
2023-07-14T05:25:24.630Z,8.02
2023-07-14T05:27:53.280Z,6.82
2023-07-14T05:30:23.728Z,7.00
2023-07-14T05:32:52.379Z,4.53
2023-07-14T05:35:21.544Z,4.88
2023-07-14T05:37:49.952Z,4.55
2023-07-14T05:40:19.245Z,6.68
2023-07-14T05:42:49.129Z,5.03
2023-07-14T05:45:18.233Z,3.95
2023-07-14T05:47:49.353Z,3.72
2023-07-14T05:50:18.983Z,3.38
2023-07-14T05:52:47.709Z,4.35
2023-07-14T05:55:16.934Z,3.85
2023-07-14T05:57:46.322Z,3.55
2023-07-14T06:00:18.350Z,4.00
2023-07-14T06:02:51.504Z,4.00
2023-07-14T06:07:49.923Z,3.28
2023-07-14T06:10:19.029Z,3.60
2023-07-14T06:12:47.548Z,3.88
2023-07-14T06:15:16.597Z,4.22
2023-07-14T06:17:45.272Z,3.03
2023-07-14T06:20:15.314Z,3.17
2023-07-14T06:22:43.844Z,4.43
2023-07-14T06:25:12.361Z,3.50
2023-07-14T06:27:40.871Z,4.85
2023-07-14T06:30:10.801Z,3.72
2023-07-14T06:32:40.369Z,3.50
2023-07-14T06:35:11.603Z,2.88
2023-07-14T06:37:42.400Z,3.15
2023-07-14T06:40:12.901Z,3.42
2023-07-14T06:42:41.287Z,5.10
2023-07-14T06:45:10.721Z,5.78
2023-07-14T06:47:39.266Z,8.02
2023-07-14T06:50:08.517Z,9.15
2023-07-14T06:52:39.301Z,12.77
2023-07-14T06:55:10.911Z,8.40
2023-07-14T06:57:39.567Z,7.63
2023-07-14T07:00:12.333Z,6.63
2023-07-14T07:02:41.272Z,8.57
2023-07-14T07:05:11.937Z,8.80
2023-07-14T07:07:40.445Z,8.13
2023-07-14T07:10:11.596Z,7.72
2023-07-14T07:12:40.685Z,9.43
2023-07-14T07:15:09.872Z,7.38
2023-07-14T07:17:40.158Z,7.68
2023-07-14T07:20:10.663Z,5.50
2023-07-14T07:22:39.353Z,9.07
2023-07-14T07:25:08.825Z,5.95
2023-07-14T07:27:38.795Z,4.30
2023-07-14T07:30:10.562Z,4.38
2023-07-14T07:32:41.574Z,4.53
2023-07-14T07:35:11.484Z,4.13
2023-07-14T07:37:40.268Z,4.18
2023-07-14T07:40:10.553Z,5.88
2023-07-14T07:42:41.816Z,7.93
2023-07-14T07:45:11.046Z,6.40
2023-07-14T07:47:39.667Z,6.57
2023-07-14T07:50:09.920Z,8.50
2023-07-14T07:52:38.476Z,8.68
2023-07-14T07:55:07.285Z,10.38
2023-07-14T07:57:35.811Z,10.95
2023-07-14T08:00:07.917Z,8.45
2023-07-14T08:02:37.578Z,8.40
2023-07-14T08:05:07.039Z,7.28
2023-07-14T08:07:36.154Z,6.72
2023-07-14T08:10:04.735Z,6.22
2023-07-14T08:12:33.315Z,5.00
2023-07-14T08:15:02.120Z,6.93
2023-07-14T08:17:55.350Z,4.57
2023-07-14T08:20:24.724Z,5.50
2023-07-14T08:22:53.201Z,5.90
2023-07-14T08:25:23.047Z,6.32
2023-07-14T08:27:52.040Z,7.07
2023-07-14T08:30:21.727Z,5.38
2023-07-14T08:32:52.140Z,6.45
2023-07-14T08:35:21.709Z,6.15
2023-07-14T08:37:51.107Z,7.00
2023-07-14T08:40:27.362Z,6.75
2023-07-14T08:43:21.894Z,5.93
2023-07-14T08:45:56.598Z,7.53
2023-07-14T08:48:35.664Z,8.60
2023-07-14T08:51:09.648Z,7.40
2023-07-14T08:53:38.264Z,8.63
2023-07-14T08:56:08.153Z,7.95
2023-07-14T08:58:41.090Z,7.32
2023-07-14T09:01:14.827Z,6.32
2023-07-14T09:03:47.463Z,5.72
2023-07-14T09:06:25.542Z,6.25
2023-07-14T09:08:55.948Z,6.97
2023-07-14T09:11:45.137Z,6.53
2023-07-14T09:14:31.975Z,7.03
2023-07-14T09:17:06.444Z,5.90
2023-07-14T09:19:46.754Z,6.32
2023-07-14T09:22:21.129Z,5.85
2023-07-14T09:24:57.997Z,5.40
2023-07-14T09:27:29.213Z,5.30
2023-07-14T09:29:58.435Z,4.85
2023-07-14T09:32:35.768Z,5.78
2023-07-14T09:35:15.279Z,6.38
2023-07-14T09:37:49.249Z,5.57
2023-07-14T09:40:21.070Z,5.60
2023-07-14T09:42:52.432Z,6.15
2023-07-14T09:45:23.357Z,4.68
2023-07-14T09:47:57.952Z,5.45
2023-07-14T09:50:28.756Z,5.30
2023-07-14T09:52:59.525Z,5.00
2023-07-14T09:55:28.180Z,4.18
2023-07-14T09:58:10.964Z,5.10
2023-07-14T10:00:42.907Z,5.63
2023-07-14T10:03:22.809Z,4.28
2023-07-14T10:05:58.832Z,5.57
2023-07-14T10:08:30.535Z,5.07
2023-07-14T10:11:01.178Z,4.53
2023-07-14T10:13:32.982Z,5.47
2023-07-14T10:16:09.048Z,4.47
2023-07-14T10:18:49.185Z,4.70
2023-07-14T10:21:25.113Z,4.88
2023-07-14T10:24:01.163Z,4.28
2023-07-14T10:26:31.727Z,4.43
2023-07-14T10:29:01.141Z,4.30
2023-07-14T10:31:39.081Z,3.58
2023-07-14T10:34:23.339Z,4.57
2023-07-14T10:36:55.023Z,4.10
2023-07-14T10:39:32.672Z,4.55
2023-07-14T10:42:02.395Z,4.70
2023-07-14T10:44:33.646Z,32.30
2023-07-14T10:47:04.929Z,7.30
2023-07-14T10:49:37.583Z,6.03
2023-07-14T10:52:12.934Z,11.20
2023-07-14T10:54:48.075Z,4.30
2023-07-14T10:57:34.389Z,4.88
2023-07-14T11:00:16.123Z,5.25
2023-07-14T11:02:48.048Z,5.25
2023-07-14T11:05:19.660Z,4.45
2023-07-14T11:07:49.629Z,4.90
2023-07-14T11:10:28.023Z,4.88
2023-07-14T11:13:04.953Z,4.80
2023-07-14T11:15:41.496Z,5.30
2023-07-14T11:18:20.222Z,4.55
2023-07-14T11:20:54.054Z,5.70
2023-07-14T11:23:27.686Z,5.55
2023-07-14T11:26:00.278Z,5.05
2023-07-14T11:28:38.517Z,5.88
2023-07-14T11:31:21.397Z,6.63
2023-07-14T11:33:55.809Z,6.95
2023-07-14T11:36:28.896Z,6.80
2023-07-14T11:41:28.720Z,4.72
2023-07-14T11:43:57.875Z,5.80
2023-07-14T11:46:27.361Z,4.78
2023-07-14T11:49:06.257Z,4.95
2023-07-14T11:51:49.834Z,4.60
2023-07-14T11:54:21.618Z,4.07
2023-07-14T11:57:01.639Z,5.32
2023-07-14T11:59:31.584Z,4.97
2023-07-14T12:02:27.019Z,4.80
2023-07-14T12:05:05.819Z,12.55
2023-07-14T12:07:37.057Z,4.63
2023-07-14T12:10:14.874Z,3.60
2023-07-14T12:12:45.300Z,5.10
2023-07-14T12:15:44.525Z,5.00
2023-07-14T12:18:32.001Z,4.40
2023-07-14T12:21:23.473Z,4.30
2023-07-14T12:23:55.118Z,5.88
2023-07-14T12:26:34.360Z,6.40
2023-07-14T12:29:04.352Z,5.80
2023-07-14T12:31:36.978Z,5.15
2023-07-14T12:34:05.674Z,5.32
2023-07-14T12:36:34.417Z,6.25
2023-07-14T12:39:05.809Z,6.05
2023-07-14T12:41:38.541Z,6.00
2023-07-14T12:44:07.277Z,5.88
2023-07-14T12:46:37.778Z,7.30
2023-07-14T12:49:19.497Z,6.95
2023-07-14T12:51:48.129Z,5.68
2023-07-14T12:54:20.044Z,5.50
2023-07-14T12:56:49.907Z,4.60
2023-07-14T12:59:19.832Z,4.75
2023-07-14T13:01:49.093Z,4.80
2023-07-14T13:04:19.649Z,5.45
2023-07-14T13:06:49.828Z,4.65
2023-07-14T13:09:23.386Z,4.20
2023-07-14T13:11:54.115Z,5.30
2023-07-14T13:14:23.917Z,3.55
2023-07-14T13:16:54.172Z,4.65
2023-07-14T13:19:28.508Z,5.68
2023-07-14T13:22:01.566Z,5.82
2023-07-14T13:24:31.967Z,4.50
2023-07-14T13:27:04.008Z,5.40
2023-07-14T13:29:38.375Z,5.55
2023-07-14T13:32:19.427Z,5.18
2023-07-14T13:34:52.180Z,4.68
2023-07-14T13:37:20.969Z,5.15
2023-07-14T13:39:56.709Z,6.00
2023-07-14T13:42:30.662Z,5.43
2023-07-14T13:45:01.535Z,5.50
2023-07-14T13:47:44.929Z,5.93
2023-07-14T13:50:13.626Z,5.95
2023-07-14T13:52:42.167Z,5.43
2023-07-14T13:55:16.229Z,5.00
2023-07-14T13:57:49.298Z,4.10
2023-07-14T14:00:21.698Z,4.88
2023-07-14T14:02:51.543Z,4.10
2023-07-14T14:05:22.503Z,5.13
2023-07-14T14:07:53.166Z,4.50
2023-07-14T14:10:23.676Z,4.55
2023-07-14T14:12:54.578Z,4.47
2023-07-14T14:15:24.497Z,4.75
2023-07-14T14:17:57.894Z,4.10
2023-07-14T14:20:28.345Z,4.20
2023-07-14T14:22:57.288Z,5.38
2023-07-14T14:25:27.717Z,5.88
2023-07-14T14:27:58.360Z,5.82
2023-07-14T14:30:43.565Z,5.90
2023-07-14T14:33:15.082Z,5.82
2023-07-14T14:35:43.808Z,7.20
2023-07-14T14:38:27.440Z,11.15
2023-07-14T14:41:14.268Z,7.95
2023-07-14T14:43:45.087Z,5.78
2023-07-14T14:46:13.533Z,6.40
2023-07-14T14:48:42.942Z,5.50
2023-07-14T14:51:14.208Z,6.63
2023-07-14T14:53:43.738Z,10.63
2023-07-14T14:56:21.054Z,12.75
2023-07-14T14:58:54.456Z,10.55
2023-07-14T15:01:28.809Z,14.85
2023-07-14T15:03:57.168Z,7.70
2023-07-14T15:06:26.213Z,8.70
2023-07-14T15:08:54.789Z,8.18
2023-07-14T15:11:23.288Z,9.73
2023-07-14T15:13:53.098Z,8.18
2023-07-14T15:16:21.504Z,7.75
2023-07-14T15:18:50.344Z,7.30
2023-07-14T15:21:21.550Z,6.47
2023-07-14T15:26:21.744Z,5.50
2023-07-14T15:28:50.664Z,5.78
2023-07-14T15:31:20.891Z,4.95
2023-07-14T15:33:50.267Z,5.55
2023-07-14T15:36:19.828Z,5.32
2023-07-14T15:38:48.715Z,4.63
2023-07-14T15:41:20.608Z,4.45
2023-07-14T15:43:51.938Z,4.82
2023-07-14T15:46:23.874Z,3.65
2023-07-14T15:48:55.031Z,4.03
2023-07-14T15:51:27.140Z,4.65
2023-07-14T15:53:57.533Z,4.18
2023-07-14T15:56:27.237Z,5.32
2023-07-14T15:58:55.875Z,5.07
2023-07-14T16:01:30.627Z,9.02
2023-07-14T16:04:01.135Z,6.07
2023-07-14T16:06:31.389Z,5.28
2023-07-14T16:09:00.381Z,4.95
2023-07-14T16:11:31.044Z,5.70
2023-07-14T16:14:01.521Z,7.70
2023-07-14T16:16:32.080Z,5.88
2023-07-14T16:19:01.221Z,6.93
2023-07-14T16:21:31.351Z,6.13
2023-07-14T16:24:01.659Z,6.68
2023-07-14T16:26:30.687Z,6.38
2023-07-14T16:28:59.129Z,6.85
2023-07-14T16:31:27.947Z,10.27
2023-07-14T16:33:57.851Z,6.78
2023-07-14T16:36:29.840Z,8.23
2023-07-14T16:39:02.653Z,7.15
2023-07-14T16:41:31.605Z,6.43
2023-07-14T16:44:00.007Z,6.88
2023-07-14T16:46:32.714Z,10.13
2023-07-14T16:49:03.289Z,7.53
2023-07-14T16:51:31.658Z,7.72
2023-07-14T16:54:01.242Z,7.40
2023-07-14T16:56:29.734Z,8.70
2023-07-14T16:58:58.268Z,9.48
2023-07-14T17:01:26.850Z,8.07
2023-07-14T17:03:55.920Z,8.52
2023-07-14T17:06:42.117Z,9.15
2023-07-14T17:09:18.040Z,10.38
2023-07-14T17:11:46.552Z,10.82
2023-07-14T17:14:17.681Z,9.90
2023-07-14T17:16:46.258Z,8.75
2023-07-14T17:19:16.407Z,11.20
2023-07-14T17:21:48.387Z,10.82
2023-07-14T17:24:19.654Z,12.02
2023-07-14T17:26:48.299Z,12.02
2023-07-14T17:29:25.414Z,11.68
2023-07-14T17:31:54.731Z,10.95
2023-07-14T17:34:23.258Z,10.70
2023-07-14T17:36:53.224Z,10.90
2023-07-14T17:39:39.795Z,9.45
2023-07-14T17:42:18.129Z,11.15
2023-07-14T17:44:46.514Z,9.35
2023-07-14T17:47:14.926Z,9.30
2023-07-14T17:49:43.853Z,9.65
2023-07-14T17:52:16.956Z,10.57
2023-07-14T17:54:46.218Z,9.20
2023-07-14T17:57:17.284Z,9.35
2023-07-14T17:59:51.787Z,9.10
2023-07-14T18:02:26.599Z,9.50
2023-07-14T18:04:55.275Z,9.77
2023-07-14T18:07:25.341Z,10.75
2023-07-14T18:09:53.926Z,10.48
2023-07-14T18:12:23.058Z,10.50
2023-07-14T18:14:51.707Z,11.77
2023-07-14T18:17:20.525Z,11.57
2023-07-14T18:19:50.175Z,10.38
2023-07-14T18:22:27.944Z,10.32
2023-07-14T18:24:57.690Z,9.63
2023-07-14T18:27:26.360Z,9.48
2023-07-14T18:29:56.208Z,11.23
2023-07-14T18:32:24.930Z,12.20
2023-07-14T18:34:53.372Z,15.43
2023-07-14T18:37:21.888Z,14.27
2023-07-14T18:39:52.684Z,13.13
2023-07-14T18:42:25.395Z,13.52
2023-07-14T18:44:54.268Z,15.20
2023-07-14T18:47:23.465Z,17.05
2023-07-14T18:49:53.160Z,16.13
2023-07-14T18:52:22.008Z,17.13
2023-07-14T18:54:51.773Z,18.42
2023-07-14T18:57:20.998Z,18.30
2023-07-14T18:59:50.145Z,18.48
2023-07-14T19:02:34.072Z,12.88
2023-07-14T19:05:09.340Z,12.75
2023-07-14T19:07:38.078Z,10.88
2023-07-14T19:10:13.267Z,17.42
2023-07-14T19:12:41.974Z,17.35
2023-07-14T19:15:19.530Z,19.02
2023-07-14T19:17:48.828Z,18.52
2023-07-14T19:20:20.141Z,18.75
2023-07-14T19:22:50.267Z,19.90
2023-07-14T19:25:21.676Z,20.90
2023-07-14T19:27:50.727Z,19.17
2023-07-14T19:30:23.134Z,17.73
2023-07-14T19:32:58.022Z,18.77
2023-07-14T19:35:26.910Z,16.50
2023-07-14T19:37:55.245Z,17.02
2023-07-14T19:40:27.097Z,18.52
2023-07-14T19:42:56.064Z,18.00
2023-07-14T19:45:26.195Z,16.10
2023-07-14T19:47:54.924Z,16.08
2023-07-14T19:50:24.390Z,16.60
2023-07-14T19:52:52.915Z,16.42
2023-07-14T19:55:25.454Z,15.60
2023-07-14T19:57:53.965Z,16.33
2023-07-14T20:00:24.281Z,19.02
2023-07-14T20:02:53.485Z,17.25
2023-07-14T20:05:25.780Z,17.00
2023-07-14T20:07:55.084Z,20.25
2023-07-14T20:10:25.078Z,19.88
2023-07-14T20:12:54.158Z,18.80
2023-07-14T20:15:25.268Z,16.77
2023-07-14T20:17:54.418Z,19.48
2023-07-14T20:20:23.010Z,21.15
2023-07-14T20:22:53.280Z,19.05
2023-07-14T20:25:23.464Z,19.17
2023-07-14T20:27:53.490Z,18.98
2023-07-14T20:30:24.336Z,20.40
2023-07-14T20:32:53.517Z,20.05
2023-07-14T20:35:25.724Z,22.88
2023-07-14T20:37:54.449Z,23.52
2023-07-14T20:40:23.175Z,23.88
2023-07-14T20:42:52.905Z,24.85
2023-07-14T20:45:23.300Z,23.02
2023-07-14T20:47:51.942Z,23.58
2023-07-14T20:50:22.525Z,21.95
2023-07-14T20:52:53.166Z,21.63
2023-07-14T20:55:28.676Z,21.75
2023-07-14T20:57:59.393Z,21.95
2023-07-14T21:00:27.859Z,23.30
2023-07-14T21:02:56.349Z,21.83
2023-07-14T21:05:25.186Z,23.02
2023-07-14T21:07:53.696Z,20.30
2023-07-14T21:10:23.024Z,19.05
2023-07-14T21:12:51.607Z,19.17
2023-07-14T21:15:21.416Z,20.17
2023-07-14T21:17:49.851Z,22.95
2023-07-14T21:20:18.519Z,23.73
2023-07-14T21:22:46.945Z,23.10
2023-07-14T21:25:17.186Z,25.58
2023-07-14T21:27:46.706Z,28.65
2023-07-14T21:30:15.777Z,25.63
2023-07-14T21:32:45.616Z,24.95
2023-07-14T21:35:19.482Z,24.75
2023-07-14T21:37:48.743Z,28.85
2023-07-14T21:40:18.686Z,28.05
2023-07-14T21:42:50.757Z,24.92
2023-07-14T21:45:20.750Z,23.77
2023-07-14T21:47:50.748Z,24.63
2023-07-14T21:50:19.359Z,22.80
2023-07-14T21:52:53.353Z,23.50
2023-07-14T21:55:21.933Z,21.40
2023-07-14T21:57:50.948Z,22.60
2023-07-14T22:00:20.428Z,23.02
2023-07-14T22:02:50.277Z,22.90
2023-07-14T22:05:19.338Z,22.92
2023-07-14T22:07:47.720Z,23.17
2023-07-14T22:10:18.458Z,22.42
2023-07-14T22:12:50.107Z,21.67
2023-07-14T22:15:23.776Z,21.48
2023-07-14T22:17:53.794Z,19.02
2023-07-14T22:20:22.493Z,19.95
2023-07-14T22:22:51.020Z,22.77
2023-07-14T22:25:19.715Z,19.73
2023-07-14T22:27:48.575Z,20.63
2023-07-14T22:30:17.579Z,19.67
2023-07-14T22:32:47.501Z,18.90
2023-07-14T22:35:19.089Z,20.08
2023-07-14T22:37:47.904Z,18.80
2023-07-14T22:40:17.523Z,18.75
2023-07-14T22:42:46.445Z,19.17
2023-07-14T22:45:16.276Z,19.35
2023-07-14T22:47:45.543Z,20.90
2023-07-14T22:50:17.271Z,17.85
2023-07-14T22:52:46.231Z,19.17
2023-07-14T22:55:18.195Z,19.55
2023-07-14T23:00:18.436Z,20.52
2023-07-14T23:02:47.765Z,23.35
2023-07-14T23:05:19.391Z,20.52
2023-07-14T23:07:49.286Z,23.20
2023-07-14T23:10:18.604Z,19.67
2023-07-14T23:12:49.670Z,21.73
2023-07-14T23:15:19.970Z,21.58
2023-07-14T23:17:48.447Z,21.35
2023-07-14T23:20:18.584Z,23.30
2023-07-14T23:22:47.385Z,23.75
2023-07-14T23:25:20.827Z,27.90
2023-07-14T23:27:49.656Z,29.98
2023-07-14T23:30:18.044Z,30.73
2023-07-14T23:32:46.607Z,32.42
2023-07-14T23:35:20.111Z,31.55
2023-07-14T23:37:48.754Z,31.67
2023-07-14T23:40:19.223Z,31.10
2023-07-14T23:42:49.892Z,32.05
2023-07-14T23:45:23.399Z,27.15
2023-07-14T23:47:51.944Z,27.65
2023-07-14T23:50:22.651Z,29.42
2023-07-14T23:52:51.151Z,27.13
2023-07-14T23:55:23.084Z,28.10
2023-07-14T23:57:51.619Z,28.33
